sensor_id;sensor_type;location;lat;lon;timestamp;temperature;humidity
44982;DHT22;30716;41.740;-70.400;2023-05-10T00:01:41;23.90;45.50
44982;DHT22;30716;41.740;-70.400;2023-05-10T00:04:07;23.90;45.40
44982;DHT22;30716;41.740;-70.400;2023-05-10T00:06:33;23.90;45.50
44982;DHT22;30716;41.740;-70.400;2023-05-10T00:09:00;23.90;45.50
44982;DHT22;30716;41.740;-70.400;2023-05-10T00:11:26;23.90;45.40
44982;DHT22;30716;41.740;-70.400;2023-05-10T00:13:52;23.90;45.40
44982;DHT22;30716;41.740;-70.400;2023-05-10T00:16:18;23.90;45.50
44982;DHT22;30716;41.740;-70.400;2023-05-10T00:18:44;23.90;45.50
44982;DHT22;30716;41.740;-70.400;2023-05-10T00:21:10;23.90;45.50
44982;DHT22;30716;41.740;-70.400;2023-05-10T00:23:36;23.90;45.50
44982;DHT22;30716;41.740;-70.400;2023-05-10T00:26:03;23.90;45.40
44982;DHT22;30716;41.740;-70.400;2023-05-10T00:28:29;23.90;45.30
44982;DHT22;30716;41.740;-70.400;2023-05-10T00:30:55;23.90;45.40
44982;DHT22;30716;41.740;-70.400;2023-05-10T00:33:21;23.90;45.70
44982;DHT22;30716;41.740;-70.400;2023-05-10T00:35:48;23.90;45.50
44982;DHT22;30716;41.740;-70.400;2023-05-10T00:38:14;23.90;45.50
44982;DHT22;30716;41.740;-70.400;2023-05-10T00:40:40;23.90;45.40
44982;DHT22;30716;41.740;-70.400;2023-05-10T00:43:06;23.90;45.30
44982;DHT22;30716;41.740;-70.400;2023-05-10T00:45:33;23.90;45.20
44982;DHT22;30716;41.740;-70.400;2023-05-10T00:48:02;23.90;45.20
44982;DHT22;30716;41.740;-70.400;2023-05-10T00:50:30;23.90;45.10
44982;DHT22;30716;41.740;-70.400;2023-05-10T00:52:58;23.90;45.40
44982;DHT22;30716;41.740;-70.400;2023-05-10T00:55:25;23.90;45.20
44982;DHT22;30716;41.740;-70.400;2023-05-10T00:57:52;23.90;45.20
44982;DHT22;30716;41.740;-70.400;2023-05-10T01:00:19;23.90;45.40
44982;DHT22;30716;41.740;-70.400;2023-05-10T01:02:48;23.90;45.10
44982;DHT22;30716;41.740;-70.400;2023-05-10T01:05:15;23.90;46.00
44982;DHT22;30716;41.740;-70.400;2023-05-10T01:07:41;23.90;45.30
44982;DHT22;30716;41.740;-70.400;2023-05-10T01:10:08;23.90;45.30
44982;DHT22;30716;41.740;-70.400;2023-05-10T01:12:38;23.90;45.20
44982;DHT22;30716;41.740;-70.400;2023-05-10T01:15:07;23.90;45.30
44982;DHT22;30716;41.740;-70.400;2023-05-10T01:17:39;23.90;45.20
44982;DHT22;30716;41.740;-70.400;2023-05-10T01:20:07;23.90;45.30
44982;DHT22;30716;41.740;-70.400;2023-05-10T01:23:29;23.90;45.50
44982;DHT22;30716;41.740;-70.400;2023-05-10T01:26:16;23.90;45.30
44982;DHT22;30716;41.740;-70.400;2023-05-10T01:29:10;23.90;45.30
44982;DHT22;30716;41.740;-70.400;2023-05-10T01:34:27;23.90;45.40
44982;DHT22;30716;41.740;-70.400;2023-05-10T01:37:13;23.90;45.40
44982;DHT22;30716;41.740;-70.400;2023-05-10T01:39:45;23.90;45.20
44982;DHT22;30716;41.740;-70.400;2023-05-10T01:42:26;23.80;45.20
44982;DHT22;30716;41.740;-70.400;2023-05-10T01:45:21;23.90;45.10
44982;DHT22;30716;41.740;-70.400;2023-05-10T01:50:32;23.90;45.10
44982;DHT22;30716;41.740;-70.400;2023-05-10T01:53:00;23.90;45.20
44982;DHT22;30716;41.740;-70.400;2023-05-10T01:55:30;23.90;45.30
44982;DHT22;30716;41.740;-70.400;2023-05-10T01:58:07;23.90;45.20
44982;DHT22;30716;41.740;-70.400;2023-05-10T02:00:35;23.90;45.10
44982;DHT22;30716;41.740;-70.400;2023-05-10T02:03:08;23.90;45.30
44982;DHT22;30716;41.740;-70.400;2023-05-10T02:05:37;23.90;45.20
44982;DHT22;30716;41.740;-70.400;2023-05-10T02:08:07;23.90;45.30
44982;DHT22;30716;41.740;-70.400;2023-05-10T02:10:39;23.90;45.20
44982;DHT22;30716;41.740;-70.400;2023-05-10T02:13:07;23.90;45.30
44982;DHT22;30716;41.740;-70.400;2023-05-10T02:15:34;23.90;45.50
44982;DHT22;30716;41.740;-70.400;2023-05-10T02:18:02;23.90;45.40
44982;DHT22;30716;41.740;-70.400;2023-05-10T02:20:31;23.90;45.40
44982;DHT22;30716;41.740;-70.400;2023-05-10T02:22:59;23.90;45.50
44982;DHT22;30716;41.740;-70.400;2023-05-10T02:25:27;23.90;45.70
44982;DHT22;30716;41.740;-70.400;2023-05-10T02:27:56;23.90;45.40
44982;DHT22;30716;41.740;-70.400;2023-05-10T02:30:23;23.90;45.50
44982;DHT22;30716;41.740;-70.400;2023-05-10T02:32:51;23.80;45.30
44982;DHT22;30716;41.740;-70.400;2023-05-10T02:35:18;23.90;45.30
44982;DHT22;30716;41.740;-70.400;2023-05-10T02:37:46;23.80;45.30
44982;DHT22;30716;41.740;-70.400;2023-05-10T02:40:13;23.80;45.30
44982;DHT22;30716;41.740;-70.400;2023-05-10T02:42:42;23.80;45.20
44982;DHT22;30716;41.740;-70.400;2023-05-10T02:45:14;23.80;45.20
44982;DHT22;30716;41.740;-70.400;2023-05-10T02:47:45;23.80;45.20
44982;DHT22;30716;41.740;-70.400;2023-05-10T02:50:11;23.80;45.30
44982;DHT22;30716;41.740;-70.400;2023-05-10T02:52:44;23.80;45.20
44982;DHT22;30716;41.740;-70.400;2023-05-10T02:55:15;23.80;45.00
44982;DHT22;30716;41.740;-70.400;2023-05-10T02:57:49;23.80;45.10
44982;DHT22;30716;41.740;-70.400;2023-05-10T03:00:16;23.80;45.00
44982;DHT22;30716;41.740;-70.400;2023-05-10T03:02:43;23.90;45.00
44982;DHT22;30716;41.740;-70.400;2023-05-10T03:05:11;23.90;45.10
44982;DHT22;30716;41.740;-70.400;2023-05-10T03:07:37;23.90;45.00
44982;DHT22;30716;41.740;-70.400;2023-05-10T03:10:04;23.80;44.90
44982;DHT22;30716;41.740;-70.400;2023-05-10T03:18:09;23.80;45.30
44982;DHT22;30716;41.740;-70.400;2023-05-10T03:20:42;23.80;45.00
44982;DHT22;30716;41.740;-70.400;2023-05-10T03:23:13;23.80;45.00
44982;DHT22;30716;41.740;-70.400;2023-05-10T03:25:44;23.80;45.20
44982;DHT22;30716;41.740;-70.400;2023-05-10T03:28:12;23.80;45.10
44982;DHT22;30716;41.740;-70.400;2023-05-10T03:30:42;23.80;45.10
44982;DHT22;30716;41.740;-70.400;2023-05-10T03:33:09;23.80;45.10
44982;DHT22;30716;41.740;-70.400;2023-05-10T03:35:35;23.80;45.30
44982;DHT22;30716;41.740;-70.400;2023-05-10T03:38:01;23.80;45.40
44982;DHT22;30716;41.740;-70.400;2023-05-10T03:40:28;23.80;45.10
44982;DHT22;30716;41.740;-70.400;2023-05-10T03:42:58;23.80;45.30
44982;DHT22;30716;41.740;-70.400;2023-05-10T03:45:25;23.80;45.50
44982;DHT22;30716;41.740;-70.400;2023-05-10T03:47:51;23.90;45.10
44982;DHT22;30716;41.740;-70.400;2023-05-10T03:50:17;23.80;45.20
44982;DHT22;30716;41.740;-70.400;2023-05-10T03:52:44;23.80;45.20
44982;DHT22;30716;41.740;-70.400;2023-05-10T03:55:10;23.90;45.20
44982;DHT22;30716;41.740;-70.400;2023-05-10T03:57:36;23.80;46.10
44982;DHT22;30716;41.740;-70.400;2023-05-10T04:00:03;23.80;45.70
44982;DHT22;30716;41.740;-70.400;2023-05-10T04:02:29;23.80;45.10
44982;DHT22;30716;41.740;-70.400;2023-05-10T04:04:56;23.80;45.20
44982;DHT22;30716;41.740;-70.400;2023-05-10T04:07:22;23.80;45.10
44982;DHT22;30716;41.740;-70.400;2023-05-10T04:09:48;23.80;45.00
44982;DHT22;30716;41.740;-70.400;2023-05-10T04:12:14;23.80;45.20
44982;DHT22;30716;41.740;-70.400;2023-05-10T04:14:40;23.80;45.00
44982;DHT22;30716;41.740;-70.400;2023-05-10T04:17:07;23.80;45.70
44982;DHT22;30716;41.740;-70.400;2023-05-10T04:19:33;23.80;45.00
44982;DHT22;30716;41.740;-70.400;2023-05-10T04:21:59;23.80;45.00
44982;DHT22;30716;41.740;-70.400;2023-05-10T04:24:25;23.80;45.00
44982;DHT22;30716;41.740;-70.400;2023-05-10T04:26:52;23.80;44.90
44982;DHT22;30716;41.740;-70.400;2023-05-10T04:29:19;23.80;45.20
44982;DHT22;30716;41.740;-70.400;2023-05-10T04:31:46;23.80;44.90
44982;DHT22;30716;41.740;-70.400;2023-05-10T04:34:12;23.80;44.90
44982;DHT22;30716;41.740;-70.400;2023-05-10T04:36:38;23.90;45.10
44982;DHT22;30716;41.740;-70.400;2023-05-10T04:39:05;23.90;44.90
44982;DHT22;30716;41.740;-70.400;2023-05-10T04:41:31;23.90;44.80
44982;DHT22;30716;41.740;-70.400;2023-05-10T04:43:57;23.90;44.70
44982;DHT22;30716;41.740;-70.400;2023-05-10T04:46:23;23.90;44.60
44982;DHT22;30716;41.740;-70.400;2023-05-10T04:48:52;23.90;44.60
44982;DHT22;30716;41.740;-70.400;2023-05-10T04:51:18;23.90;44.50
44982;DHT22;30716;41.740;-70.400;2023-05-10T04:53:46;23.90;44.50
44982;DHT22;30716;41.740;-70.400;2023-05-10T04:56:12;23.90;44.60
44982;DHT22;30716;41.740;-70.400;2023-05-10T04:58:38;23.90;44.70
44982;DHT22;30716;41.740;-70.400;2023-05-10T05:01:07;23.90;44.70
44982;DHT22;30716;41.740;-70.400;2023-05-10T05:03:34;23.90;44.70
44982;DHT22;30716;41.740;-70.400;2023-05-10T05:06:00;23.90;44.60
44982;DHT22;30716;41.740;-70.400;2023-05-10T05:08:26;23.90;44.80
44982;DHT22;30716;41.740;-70.400;2023-05-10T05:10:52;23.90;44.80
44982;DHT22;30716;41.740;-70.400;2023-05-10T05:13:19;23.90;44.80
44982;DHT22;30716;41.740;-70.400;2023-05-10T05:15:45;23.90;44.80
44982;DHT22;30716;41.740;-70.400;2023-05-10T05:18:11;23.90;44.80
44982;DHT22;30716;41.740;-70.400;2023-05-10T05:20:37;23.90;44.80
44982;DHT22;30716;41.740;-70.400;2023-05-10T05:23:03;23.90;44.80
44982;DHT22;30716;41.740;-70.400;2023-05-10T05:25:29;23.90;44.80
44982;DHT22;30716;41.740;-70.400;2023-05-10T05:27:56;23.90;44.70
44982;DHT22;30716;41.740;-70.400;2023-05-10T05:30:22;23.90;44.70
44982;DHT22;30716;41.740;-70.400;2023-05-10T05:32:48;23.90;44.80
44982;DHT22;30716;41.740;-70.400;2023-05-10T05:35:14;23.90;44.60
44982;DHT22;30716;41.740;-70.400;2023-05-10T05:37:41;23.90;44.90
44982;DHT22;30716;41.740;-70.400;2023-05-10T05:40:08;23.90;44.50
44982;DHT22;30716;41.740;-70.400;2023-05-10T05:42:34;23.90;44.50
44982;DHT22;30716;41.740;-70.400;2023-05-10T05:45:00;23.90;44.40
44982;DHT22;30716;41.740;-70.400;2023-05-10T05:47:26;23.90;44.50
44982;DHT22;30716;41.740;-70.400;2023-05-10T05:49:52;23.90;44.50
44982;DHT22;30716;41.740;-70.400;2023-05-10T05:52:19;23.90;44.40
44982;DHT22;30716;41.740;-70.400;2023-05-10T05:54:45;23.90;44.50
44982;DHT22;30716;41.740;-70.400;2023-05-10T05:57:11;23.90;44.50
44982;DHT22;30716;41.740;-70.400;2023-05-10T05:59:40;23.80;44.50
44982;DHT22;30716;41.740;-70.400;2023-05-10T06:02:10;23.80;44.40
44982;DHT22;30716;41.740;-70.400;2023-05-10T06:04:36;23.90;44.50
44982;DHT22;30716;41.740;-70.400;2023-05-10T06:07:02;23.80;44.40
44982;DHT22;30716;41.740;-70.400;2023-05-10T06:09:29;23.80;44.30
44982;DHT22;30716;41.740;-70.400;2023-05-10T06:11:55;23.80;44.50
44982;DHT22;30716;41.740;-70.400;2023-05-10T06:14:21;23.80;44.50
44982;DHT22;30716;41.740;-70.400;2023-05-10T06:16:47;23.80;44.60
44982;DHT22;30716;41.740;-70.400;2023-05-10T06:19:13;23.80;44.50
44982;DHT22;30716;41.740;-70.400;2023-05-10T06:21:39;23.90;44.40
44982;DHT22;30716;41.740;-70.400;2023-05-10T06:24:06;23.90;44.50
44982;DHT22;30716;41.740;-70.400;2023-05-10T06:26:33;23.90;44.50
44982;DHT22;30716;41.740;-70.400;2023-05-10T06:28:59;23.90;44.40
44982;DHT22;30716;41.740;-70.400;2023-05-10T06:31:29;23.90;44.40
44982;DHT22;30716;41.740;-70.400;2023-05-10T06:33:58;23.90;44.70
44982;DHT22;30716;41.740;-70.400;2023-05-10T06:36:25;23.80;44.60
44982;DHT22;30716;41.740;-70.400;2023-05-10T06:38:52;23.80;44.70
44982;DHT22;30716;41.740;-70.400;2023-05-10T06:41:18;23.80;45.00
44982;DHT22;30716;41.740;-70.400;2023-05-10T06:43:44;23.80;44.60
44982;DHT22;30716;41.740;-70.400;2023-05-10T06:46:10;23.80;44.60
44982;DHT22;30716;41.740;-70.400;2023-05-10T06:48:43;23.80;44.60
44982;DHT22;30716;41.740;-70.400;2023-05-10T06:51:09;23.80;44.60
44982;DHT22;30716;41.740;-70.400;2023-05-10T06:53:35;23.80;44.90
44982;DHT22;30716;41.740;-70.400;2023-05-10T06:56:01;23.80;44.50
44982;DHT22;30716;41.740;-70.400;2023-05-10T06:58:28;23.80;44.50
44982;DHT22;30716;41.740;-70.400;2023-05-10T07:01:01;23.80;44.50
44982;DHT22;30716;41.740;-70.400;2023-05-10T07:03:27;23.80;44.50
44982;DHT22;30716;41.740;-70.400;2023-05-10T07:05:53;23.80;44.40
44982;DHT22;30716;41.740;-70.400;2023-05-10T07:08:21;23.80;44.50
44982;DHT22;30716;41.740;-70.400;2023-05-10T07:10:47;23.80;45.20
44982;DHT22;30716;41.740;-70.400;2023-05-10T07:13:13;23.80;44.60
44982;DHT22;30716;41.740;-70.400;2023-05-10T07:15:39;23.80;44.40
44982;DHT22;30716;41.740;-70.400;2023-05-10T07:18:05;23.80;44.30
44982;DHT22;30716;41.740;-70.400;2023-05-10T07:20:32;23.80;44.30
44982;DHT22;30716;41.740;-70.400;2023-05-10T07:22:58;23.80;44.30
44982;DHT22;30716;41.740;-70.400;2023-05-10T07:25:24;23.80;44.60
44982;DHT22;30716;41.740;-70.400;2023-05-10T07:27:50;23.90;44.80
44982;DHT22;30716;41.740;-70.400;2023-05-10T07:30:16;23.80;44.60
44982;DHT22;30716;41.740;-70.400;2023-05-10T07:32:43;23.80;44.30
44982;DHT22;30716;41.740;-70.400;2023-05-10T07:35:09;23.80;44.40
44982;DHT22;30716;41.740;-70.400;2023-05-10T07:37:35;23.80;44.60
44982;DHT22;30716;41.740;-70.400;2023-05-10T07:40:01;23.80;44.50
44982;DHT22;30716;41.740;-70.400;2023-05-10T07:42:27;23.80;44.30
44982;DHT22;30716;41.740;-70.400;2023-05-10T07:44:54;23.80;44.30
44982;DHT22;30716;41.740;-70.400;2023-05-10T07:47:20;23.80;44.40
44982;DHT22;30716;41.740;-70.400;2023-05-10T07:49:46;23.80;44.70
44982;DHT22;30716;41.740;-70.400;2023-05-10T07:52:12;23.80;44.60
44982;DHT22;30716;41.740;-70.400;2023-05-10T07:54:39;23.80;44.50
44982;DHT22;30716;41.740;-70.400;2023-05-10T07:57:05;23.80;45.40
44982;DHT22;30716;41.740;-70.400;2023-05-10T07:59:32;23.80;44.80
44982;DHT22;30716;41.740;-70.400;2023-05-10T08:01:58;23.80;44.90
44982;DHT22;30716;41.740;-70.400;2023-05-10T08:04:24;23.80;44.80
44982;DHT22;30716;41.740;-70.400;2023-05-10T08:06:51;23.80;45.00
44982;DHT22;30716;41.740;-70.400;2023-05-10T08:09:17;23.80;44.50
44982;DHT22;30716;41.740;-70.400;2023-05-10T08:11:43;23.80;44.70
44982;DHT22;30716;41.740;-70.400;2023-05-10T08:14:09;23.80;44.50
44982;DHT22;30716;41.740;-70.400;2023-05-10T08:16:35;23.80;44.70
44982;DHT22;30716;41.740;-70.400;2023-05-10T08:19:02;23.80;44.70
44982;DHT22;30716;41.740;-70.400;2023-05-10T08:21:28;23.80;44.60
44982;DHT22;30716;41.740;-70.400;2023-05-10T08:23:54;23.80;44.50
44982;DHT22;30716;41.740;-70.400;2023-05-10T08:26:20;23.70;44.50
44982;DHT22;30716;41.740;-70.400;2023-05-10T08:28:47;23.70;44.60
44982;DHT22;30716;41.740;-70.400;2023-05-10T08:31:13;23.70;44.50
44982;DHT22;30716;41.740;-70.400;2023-05-10T08:33:39;23.70;44.50
44982;DHT22;30716;41.740;-70.400;2023-05-10T08:36:05;23.70;44.50
44982;DHT22;30716;41.740;-70.400;2023-05-10T08:38:32;23.70;44.50
44982;DHT22;30716;41.740;-70.400;2023-05-10T08:40:58;23.70;44.40
44982;DHT22;30716;41.740;-70.400;2023-05-10T08:43:29;23.80;44.80
44982;DHT22;30716;41.740;-70.400;2023-05-10T08:45:56;23.80;44.50
44982;DHT22;30716;41.740;-70.400;2023-05-10T08:48:23;23.80;44.50
44982;DHT22;30716;41.740;-70.400;2023-05-10T08:50:54;23.80;44.50
44982;DHT22;30716;41.740;-70.400;2023-05-10T08:53:24;23.80;44.70
44982;DHT22;30716;41.740;-70.400;2023-05-10T08:55:52;23.70;44.50
44982;DHT22;30716;41.740;-70.400;2023-05-10T08:58:19;23.70;44.20
44982;DHT22;30716;41.740;-70.400;2023-05-10T09:00:49;23.70;44.30
44982;DHT22;30716;41.740;-70.400;2023-05-10T09:03:18;23.80;44.60
44982;DHT22;30716;41.740;-70.400;2023-05-10T09:05:44;23.80;44.60
44982;DHT22;30716;41.740;-70.400;2023-05-10T09:08:12;23.80;44.70
44982;DHT22;30716;41.740;-70.400;2023-05-10T09:10:39;23.70;44.50
44982;DHT22;30716;41.740;-70.400;2023-05-10T09:13:06;23.70;45.00
44982;DHT22;30716;41.740;-70.400;2023-05-10T09:15:33;23.70;44.70
44982;DHT22;30716;41.740;-70.400;2023-05-10T09:17:59;23.70;44.90
44982;DHT22;30716;41.740;-70.400;2023-05-10T09:20:28;23.70;45.00
44982;DHT22;30716;41.740;-70.400;2023-05-10T09:22:54;23.70;44.80
44982;DHT22;30716;41.740;-70.400;2023-05-10T09:25:20;23.70;44.80
44982;DHT22;30716;41.740;-70.400;2023-05-10T09:27:48;23.70;45.00
44982;DHT22;30716;41.740;-70.400;2023-05-10T09:30:27;23.70;44.50
44982;DHT22;30716;41.740;-70.400;2023-05-10T09:32:54;23.70;44.70
44982;DHT22;30716;41.740;-70.400;2023-05-10T09:35:22;23.70;44.60
44982;DHT22;30716;41.740;-70.400;2023-05-10T09:37:51;23.70;44.50
44982;DHT22;30716;41.740;-70.400;2023-05-10T09:40:23;23.70;44.90
44982;DHT22;30716;41.740;-70.400;2023-05-10T09:42:57;23.70;44.50
44982;DHT22;30716;41.740;-70.400;2023-05-10T09:45:25;23.70;44.50
44982;DHT22;30716;41.740;-70.400;2023-05-10T09:47:52;23.70;44.40
44982;DHT22;30716;41.740;-70.400;2023-05-10T09:50:19;23.70;44.50
44982;DHT22;30716;41.740;-70.400;2023-05-10T09:52:51;23.70;44.70
44982;DHT22;30716;41.740;-70.400;2023-05-10T09:55:22;23.70;44.40
44982;DHT22;30716;41.740;-70.400;2023-05-10T09:57:58;23.70;44.50
44982;DHT22;30716;41.740;-70.400;2023-05-10T10:00:24;23.70;44.50
44982;DHT22;30716;41.740;-70.400;2023-05-10T10:02:59;23.70;44.60
44982;DHT22;30716;41.740;-70.400;2023-05-10T10:05:33;23.70;44.50
44982;DHT22;30716;41.740;-70.400;2023-05-10T10:08:01;23.70;44.50
44982;DHT22;30716;41.740;-70.400;2023-05-10T10:10:28;23.70;44.50
44982;DHT22;30716;41.740;-70.400;2023-05-10T10:12:55;23.70;44.90
44982;DHT22;30716;41.740;-70.400;2023-05-10T10:15:22;23.70;44.80
44982;DHT22;30716;41.740;-70.400;2023-05-10T10:17:49;23.70;44.80
44982;DHT22;30716;41.740;-70.400;2023-05-10T10:20:17;23.70;44.60
44982;DHT22;30716;41.740;-70.400;2023-05-10T10:22:44;23.70;44.40
44982;DHT22;30716;41.740;-70.400;2023-05-10T10:25:15;23.70;44.50
44982;DHT22;30716;41.740;-70.400;2023-05-10T10:35:32;23.70;44.70
44982;DHT22;30716;41.740;-70.400;2023-05-10T10:37:58;23.70;44.50
44982;DHT22;30716;41.740;-70.400;2023-05-10T10:42:52;23.60;44.50
44982;DHT22;30716;41.740;-70.400;2023-05-10T10:45:20;23.70;44.60
44982;DHT22;30716;41.740;-70.400;2023-05-10T10:47:46;23.60;44.50
44982;DHT22;30716;41.740;-70.400;2023-05-10T10:50:13;23.60;44.50
44982;DHT22;30716;41.740;-70.400;2023-05-10T10:52:40;23.70;44.60
44982;DHT22;30716;41.740;-70.400;2023-05-10T10:55:11;23.70;44.50
44982;DHT22;30716;41.740;-70.400;2023-05-10T11:00:38;23.70;45.10
44982;DHT22;30716;41.740;-70.400;2023-05-10T11:03:09;23.70;44.70
44982;DHT22;30716;41.740;-70.400;2023-05-10T11:15:56;23.70;44.20
44982;DHT22;30716;41.740;-70.400;2023-05-10T11:18:29;23.70;44.30
44982;DHT22;30716;41.740;-70.400;2023-05-10T11:21:00;23.70;44.60
44982;DHT22;30716;41.740;-70.400;2023-05-10T11:23:32;23.70;44.50
44982;DHT22;30716;41.740;-70.400;2023-05-10T11:26:13;23.70;44.80
44982;DHT22;30716;41.740;-70.400;2023-05-10T11:28:49;23.70;44.70
44982;DHT22;30716;41.740;-70.400;2023-05-10T11:31:17;23.70;44.40
44982;DHT22;30716;41.740;-70.400;2023-05-10T11:33:45;23.70;44.30
44982;DHT22;30716;41.740;-70.400;2023-05-10T11:36:16;23.70;44.40
44982;DHT22;30716;41.740;-70.400;2023-05-10T11:38:42;23.70;44.50
44982;DHT22;30716;41.740;-70.400;2023-05-10T11:41:09;23.60;45.10
44982;DHT22;30716;41.740;-70.400;2023-05-10T11:43:41;23.60;44.40
44982;DHT22;30716;41.740;-70.400;2023-05-10T11:46:11;23.60;44.20
44982;DHT22;30716;41.740;-70.400;2023-05-10T11:48:42;23.60;44.30
44982;DHT22;30716;41.740;-70.400;2023-05-10T11:51:11;23.70;44.30
44982;DHT22;30716;41.740;-70.400;2023-05-10T11:53:37;23.60;44.10
44982;DHT22;30716;41.740;-70.400;2023-05-10T11:56:10;23.70;44.10
44982;DHT22;30716;41.740;-70.400;2023-05-10T11:58:38;23.70;44.40
44982;DHT22;30716;41.740;-70.400;2023-05-10T12:01:05;23.70;44.10
44982;DHT22;30716;41.740;-70.400;2023-05-10T12:03:32;23.70;44.10
44982;DHT22;30716;41.740;-70.400;2023-05-10T12:05:59;23.70;44.50
44982;DHT22;30716;41.740;-70.400;2023-05-10T12:08:28;23.70;43.70
44982;DHT22;30716;41.740;-70.400;2023-05-10T12:11:04;23.60;43.50
44982;DHT22;30716;41.740;-70.400;2023-05-10T12:13:31;23.70;43.50
44982;DHT22;30716;41.740;-70.400;2023-05-10T12:15:58;23.60;43.50
44982;DHT22;30716;41.740;-70.400;2023-05-10T12:18:24;23.70;43.20
44982;DHT22;30716;41.740;-70.400;2023-05-10T12:20:54;23.60;42.60
44982;DHT22;30716;41.740;-70.400;2023-05-10T12:23:28;23.70;42.40
44982;DHT22;30716;41.740;-70.400;2023-05-10T12:26:02;23.70;42.20
44982;DHT22;30716;41.740;-70.400;2023-05-10T12:28:33;23.70;42.20
44982;DHT22;30716;41.740;-70.400;2023-05-10T12:31:01;23.70;42.30
44982;DHT22;30716;41.740;-70.400;2023-05-10T12:33:27;23.70;41.90
44982;DHT22;30716;41.740;-70.400;2023-05-10T12:36:00;23.70;41.80
44982;DHT22;30716;41.740;-70.400;2023-05-10T12:38:38;23.70;41.50
44982;DHT22;30716;41.740;-70.400;2023-05-10T12:41:10;23.70;41.40
44982;DHT22;30716;41.740;-70.400;2023-05-10T12:43:37;23.70;41.10
44982;DHT22;30716;41.740;-70.400;2023-05-10T12:46:08;23.80;41.00
44982;DHT22;30716;41.740;-70.400;2023-05-10T12:48:35;23.80;41.20
44982;DHT22;30716;41.740;-70.400;2023-05-10T12:51:03;23.80;41.20
44982;DHT22;30716;41.740;-70.400;2023-05-10T12:53:29;23.80;40.70
44982;DHT22;30716;41.740;-70.400;2023-05-10T12:55:56;23.80;41.00
44982;DHT22;30716;41.740;-70.400;2023-05-10T12:58:22;23.80;40.90
44982;DHT22;30716;41.740;-70.400;2023-05-10T13:00:48;23.80;40.90
44982;DHT22;30716;41.740;-70.400;2023-05-10T13:03:15;23.90;40.70
44982;DHT22;30716;41.740;-70.400;2023-05-10T13:05:41;23.90;40.50
44982;DHT22;30716;41.740;-70.400;2023-05-10T13:08:07;23.90;40.30
44982;DHT22;30716;41.740;-70.400;2023-05-10T13:10:33;23.90;40.20
44982;DHT22;30716;41.740;-70.400;2023-05-10T13:13:00;23.90;40.00
44982;DHT22;30716;41.740;-70.400;2023-05-10T13:15:26;23.90;40.30
44982;DHT22;30716;41.740;-70.400;2023-05-10T13:17:53;24.00;40.40
44982;DHT22;30716;41.740;-70.400;2023-05-10T13:20:20;23.90;40.10
44982;DHT22;30716;41.740;-70.400;2023-05-10T13:22:47;23.90;40.20
44982;DHT22;30716;41.740;-70.400;2023-05-10T13:25:13;23.90;39.80
44982;DHT22;30716;41.740;-70.400;2023-05-10T13:27:40;23.90;40.00
44982;DHT22;30716;41.740;-70.400;2023-05-10T13:30:09;23.90;40.00
44982;DHT22;30716;41.740;-70.400;2023-05-10T13:32:37;23.90;39.90
44982;DHT22;30716;41.740;-70.400;2023-05-10T13:35:03;24.00;39.70
44982;DHT22;30716;41.740;-70.400;2023-05-10T13:37:31;24.00;39.80
44982;DHT22;30716;41.740;-70.400;2023-05-10T13:40:00;24.00;39.90
44982;DHT22;30716;41.740;-70.400;2023-05-10T13:42:26;24.00;39.60
44982;DHT22;30716;41.740;-70.400;2023-05-10T13:44:52;24.00;39.90
44982;DHT22;30716;41.740;-70.400;2023-05-10T13:49:54;24.00;39.80
44982;DHT22;30716;41.740;-70.400;2023-05-10T13:52:20;24.00;39.60
44982;DHT22;30716;41.740;-70.400;2023-05-10T13:54:46;24.00;39.80
44982;DHT22;30716;41.740;-70.400;2023-05-10T13:57:13;24.10;39.90
44982;DHT22;30716;41.740;-70.400;2023-05-10T13:59:39;24.10;39.80
44982;DHT22;30716;41.740;-70.400;2023-05-10T14:02:06;24.10;39.70
44982;DHT22;30716;41.740;-70.400;2023-05-10T14:04:32;24.10;39.50
44982;DHT22;30716;41.740;-70.400;2023-05-10T14:07:00;24.10;39.70
44982;DHT22;30716;41.740;-70.400;2023-05-10T14:09:26;24.10;40.50
44982;DHT22;30716;41.740;-70.400;2023-05-10T14:11:52;24.10;39.80
44982;DHT22;30716;41.740;-70.400;2023-05-10T14:14:18;24.10;39.30
44982;DHT22;30716;41.740;-70.400;2023-05-10T14:16:44;24.10;38.90
44982;DHT22;30716;41.740;-70.400;2023-05-10T14:19:11;24.10;39.00
44982;DHT22;30716;41.740;-70.400;2023-05-10T14:21:38;24.10;39.10
44982;DHT22;30716;41.740;-70.400;2023-05-10T14:24:04;24.10;39.00
44982;DHT22;30716;41.740;-70.400;2023-05-10T14:26:32;24.10;39.00
44982;DHT22;30716;41.740;-70.400;2023-05-10T14:28:58;24.10;39.00
44982;DHT22;30716;41.740;-70.400;2023-05-10T14:31:25;24.10;39.00
44982;DHT22;30716;41.740;-70.400;2023-05-10T14:33:51;24.10;39.00
44982;DHT22;30716;41.740;-70.400;2023-05-10T14:36:17;24.10;39.00
44982;DHT22;30716;41.740;-70.400;2023-05-10T14:38:43;24.20;39.00
44982;DHT22;30716;41.740;-70.400;2023-05-10T14:41:10;24.20;38.70
44982;DHT22;30716;41.740;-70.400;2023-05-10T14:43:40;24.20;38.30
44982;DHT22;30716;41.740;-70.400;2023-05-10T14:46:06;24.20;38.50
44982;DHT22;30716;41.740;-70.400;2023-05-10T14:48:33;24.20;38.30
44982;DHT22;30716;41.740;-70.400;2023-05-10T14:50:59;24.20;38.00
44982;DHT22;30716;41.740;-70.400;2023-05-10T14:53:25;24.20;37.70
44982;DHT22;30716;41.740;-70.400;2023-05-10T14:55:51;24.20;37.80
44982;DHT22;30716;41.740;-70.400;2023-05-10T14:58:18;24.20;37.90
44982;DHT22;30716;41.740;-70.400;2023-05-10T15:00:44;24.20;38.10
44982;DHT22;30716;41.740;-70.400;2023-05-10T15:03:10;24.30;38.80
44982;DHT22;30716;41.740;-70.400;2023-05-10T15:05:36;24.30;38.20
44982;DHT22;30716;41.740;-70.400;2023-05-10T15:08:03;24.30;38.20
44982;DHT22;30716;41.740;-70.400;2023-05-10T15:10:31;24.30;38.20
44982;DHT22;30716;41.740;-70.400;2023-05-10T15:12:58;24.30;38.30
44982;DHT22;30716;41.740;-70.400;2023-05-10T15:15:25;24.30;38.40
44982;DHT22;30716;41.740;-70.400;2023-05-10T15:17:51;24.30;38.40
44982;DHT22;30716;41.740;-70.400;2023-05-10T15:20:17;24.30;38.50
44982;DHT22;30716;41.740;-70.400;2023-05-10T15:22:44;24.30;38.70
44982;DHT22;30716;41.740;-70.400;2023-05-10T15:25:10;24.30;39.30
44982;DHT22;30716;41.740;-70.400;2023-05-10T15:27:36;24.30;38.60
44982;DHT22;30716;41.740;-70.400;2023-05-10T15:30:03;24.30;38.60
44982;DHT22;30716;41.740;-70.400;2023-05-10T15:32:29;24.30;38.80
44982;DHT22;30716;41.740;-70.400;2023-05-10T15:34:55;24.40;38.90
44982;DHT22;30716;41.740;-70.400;2023-05-10T15:37:21;24.30;39.00
44982;DHT22;30716;41.740;-70.400;2023-05-10T15:39:49;24.30;39.00
44982;DHT22;30716;41.740;-70.400;2023-05-10T15:42:15;24.30;39.10
44982;DHT22;30716;41.740;-70.400;2023-05-10T15:44:41;24.30;39.10